sensor_id;sensor_type;location;lat;lon;timestamp;temperature;humidity
19039;DHT22;9652;49.014;12.052;2023-07-31T00:00:43;18.50;65.30
19039;DHT22;9652;49.014;12.052;2023-07-31T00:03:11;18.60;65.50
19039;DHT22;9652;49.014;12.052;2023-07-31T00:05:38;18.50;65.40
19039;DHT22;9652;49.014;12.052;2023-07-31T00:08:07;18.40;65.40
19039;DHT22;9652;49.014;12.052;2023-07-31T00:10:34;18.30;65.50
19039;DHT22;9652;49.014;12.052;2023-07-31T00:13:01;18.40;65.60
19039;DHT22;9652;49.014;12.052;2023-07-31T00:15:28;18.40;65.70
19039;DHT22;9652;49.014;12.052;2023-07-31T00:17:56;18.30;65.60
19039;DHT22;9652;49.014;12.052;2023-07-31T00:20:23;18.30;65.70
19039;DHT22;9652;49.014;12.052;2023-07-31T00:22:50;18.20;65.70
19039;DHT22;9652;49.014;12.052;2023-07-31T00:25:17;18.20;65.70
19039;DHT22;9652;49.014;12.052;2023-07-31T00:27:44;18.30;66.10
19039;DHT22;9652;49.014;12.052;2023-07-31T00:30:11;18.20;66.00
19039;DHT22;9652;49.014;12.052;2023-07-31T00:32:38;18.10;66.10
19039;DHT22;9652;49.014;12.052;2023-07-31T00:35:06;18.10;66.10
19039;DHT22;9652;49.014;12.052;2023-07-31T00:37:33;18.00;66.10
19039;DHT22;9652;49.014;12.052;2023-07-31T00:40:00;18.00;66.20
19039;DHT22;9652;49.014;12.052;2023-07-31T00:42:31;18.00;66.30
19039;DHT22;9652;49.014;12.052;2023-07-31T00:44:58;17.90;66.50
19039;DHT22;9652;49.014;12.052;2023-07-31T00:47:25;17.90;66.60
19039;DHT22;9652;49.014;12.052;2023-07-31T00:49:52;17.90;66.70
19039;DHT22;9652;49.014;12.052;2023-07-31T00:52:20;17.90;66.70
19039;DHT22;9652;49.014;12.052;2023-07-31T00:54:48;17.80;66.90
19039;DHT22;9652;49.014;12.052;2023-07-31T00:57:16;17.80;66.90
19039;DHT22;9652;49.014;12.052;2023-07-31T00:59:45;17.80;67.00
19039;DHT22;9652;49.014;12.052;2023-07-31T01:02:12;17.80;67.20
19039;DHT22;9652;49.014;12.052;2023-07-31T01:04:41;17.80;67.20
19039;DHT22;9652;49.014;12.052;2023-07-31T01:07:16;17.80;67.20
19039;DHT22;9652;49.014;12.052;2023-07-31T01:09:55;17.80;67.40
19039;DHT22;9652;49.014;12.052;2023-07-31T01:12:30;17.70;67.20
19039;DHT22;9652;49.014;12.052;2023-07-31T01:15:07;17.70;67.20
19039;DHT22;9652;49.014;12.052;2023-07-31T01:17:36;17.70;67.60
19039;DHT22;9652;49.014;12.052;2023-07-31T01:20:10;17.70;67.30
19039;DHT22;9652;49.014;12.052;2023-07-31T01:23:08;17.70;67.50
19039;DHT22;9652;49.014;12.052;2023-07-31T01:26:00;17.60;68.00
19039;DHT22;9652;49.014;12.052;2023-07-31T01:28:38;17.70;67.90
19039;DHT22;9652;49.014;12.052;2023-07-31T01:31:14;17.60;68.00
19039;DHT22;9652;49.014;12.052;2023-07-31T01:33:45;17.70;68.20
19039;DHT22;9652;49.014;12.052;2023-07-31T01:36:13;17.70;68.30
19039;DHT22;9652;49.014;12.052;2023-07-31T01:38:41;17.70;68.30
19039;DHT22;9652;49.014;12.052;2023-07-31T01:41:09;17.70;68.30
19039;DHT22;9652;49.014;12.052;2023-07-31T01:43:37;17.80;68.50
19039;DHT22;9652;49.014;12.052;2023-07-31T01:46:04;17.80;68.40
19039;DHT22;9652;49.014;12.052;2023-07-31T01:48:31;17.70;68.20
19039;DHT22;9652;49.014;12.052;2023-07-31T01:51:02;17.80;68.10
19039;DHT22;9652;49.014;12.052;2023-07-31T01:53:30;17.80;67.90
19039;DHT22;9652;49.014;12.052;2023-07-31T01:55:58;17.80;67.80
19039;DHT22;9652;49.014;12.052;2023-07-31T01:58:27;17.80;67.70
19039;DHT22;9652;49.014;12.052;2023-07-31T02:00:54;17.80;67.60
19039;DHT22;9652;49.014;12.052;2023-07-31T02:03:21;17.80;67.60
19039;DHT22;9652;49.014;12.052;2023-07-31T02:05:51;17.70;67.50
19039;DHT22;9652;49.014;12.052;2023-07-31T02:08:18;17.70;67.60
19039;DHT22;9652;49.014;12.052;2023-07-31T02:10:45;17.70;67.70
19039;DHT22;9652;49.014;12.052;2023-07-31T02:13:12;17.60;67.70
19039;DHT22;9652;49.014;12.052;2023-07-31T02:15:41;17.60;67.70
19039;DHT22;9652;49.014;12.052;2023-07-31T02:18:09;17.60;67.80
19039;DHT22;9652;49.014;12.052;2023-07-31T02:20:36;17.50;67.80
19039;DHT22;9652;49.014;12.052;2023-07-31T02:23:03;17.50;67.90
19039;DHT22;9652;49.014;12.052;2023-07-31T02:25:30;17.50;68.00
19039;DHT22;9652;49.014;12.052;2023-07-31T02:27:57;17.40;68.10
19039;DHT22;9652;49.014;12.052;2023-07-31T02:30:25;17.40;68.20
19039;DHT22;9652;49.014;12.052;2023-07-31T02:32:53;17.40;68.30
19039;DHT22;9652;49.014;12.052;2023-07-31T02:35:20;17.40;68.50
19039;DHT22;9652;49.014;12.052;2023-07-31T02:37:47;17.40;68.50
19039;DHT22;9652;49.014;12.052;2023-07-31T02:40:14;17.40;68.60
19039;DHT22;9652;49.014;12.052;2023-07-31T02:42:42;17.30;68.60
19039;DHT22;9652;49.014;12.052;2023-07-31T02:45:09;17.40;68.80
19039;DHT22;9652;49.014;12.052;2023-07-31T02:47:36;17.30;68.80
19039;DHT22;9652;49.014;12.052;2023-07-31T02:50:06;17.30;69.00
19039;DHT22;9652;49.014;12.052;2023-07-31T02:52:33;17.20;69.20
19039;DHT22;9652;49.014;12.052;2023-07-31T02:55:00;17.30;69.40
19039;DHT22;9652;49.014;12.052;2023-07-31T02:57:27;17.30;69.50
19039;DHT22;9652;49.014;12.052;2023-07-31T02:59:54;17.30;69.70
19039;DHT22;9652;49.014;12.052;2023-07-31T03:02:21;17.30;70.50
19039;DHT22;9652;49.014;12.052;2023-07-31T03:04:49;17.30;70.40
19039;DHT22;9652;49.014;12.052;2023-07-31T03:07:17;17.30;69.30
19039;DHT22;9652;49.014;12.052;2023-07-31T03:09:44;17.30;69.10
19039;DHT22;9652;49.014;12.052;2023-07-31T03:12:11;17.30;69.00
19039;DHT22;9652;49.014;12.052;2023-07-31T03:14:38;17.30;68.90
19039;DHT22;9652;49.014;12.052;2023-07-31T03:17:05;17.30;68.90
19039;DHT22;9652;49.014;12.052;2023-07-31T03:19:33;17.30;68.80
19039;DHT22;9652;49.014;12.052;2023-07-31T03:22:00;17.30;68.80
19039;DHT22;9652;49.014;12.052;2023-07-31T03:24:30;17.20;68.80
19039;DHT22;9652;49.014;12.052;2023-07-31T03:26:57;17.20;68.90
19039;DHT22;9652;49.014;12.052;2023-07-31T03:29:24;17.20;69.00
19039;DHT22;9652;49.014;12.052;2023-07-31T03:31:52;17.20;69.00
19039;DHT22;9652;49.014;12.052;2023-07-31T03:34:19;17.10;69.00
19039;DHT22;9652;49.014;12.052;2023-07-31T03:36:46;17.10;69.20
19039;DHT22;9652;49.014;12.052;2023-07-31T03:39:13;17.10;69.20
19039;DHT22;9652;49.014;12.052;2023-07-31T03:41:41;17.10;69.20
19039;DHT22;9652;49.014;12.052;2023-07-31T03:44:08;17.00;69.20
19039;DHT22;9652;49.014;12.052;2023-07-31T03:46:36;17.20;69.40
19039;DHT22;9652;49.014;12.052;2023-07-31T03:49:03;17.00;69.40
19039;DHT22;9652;49.014;12.052;2023-07-31T03:51:30;17.00;69.50
19039;DHT22;9652;49.014;12.052;2023-07-31T03:53:57;17.00;69.50
19039;DHT22;9652;49.014;12.052;2023-07-31T03:56:24;17.00;69.70
19039;DHT22;9652;49.014;12.052;2023-07-31T03:58:52;17.00;69.80
19039;DHT22;9652;49.014;12.052;2023-07-31T04:01:19;17.00;70.10
19039;DHT22;9652;49.014;12.052;2023-07-31T04:03:46;17.00;70.20
19039;DHT22;9652;49.014;12.052;2023-07-31T04:06:13;17.00;70.20
19039;DHT22;9652;49.014;12.052;2023-07-31T04:08:43;17.00;70.30
19039;DHT22;9652;49.014;12.052;2023-07-31T04:11:10;17.00;70.20
19039;DHT22;9652;49.014;12.052;2023-07-31T04:13:38;17.10;70.20
19039;DHT22;9652;49.014;12.052;2023-07-31T04:16:06;17.10;70.20
19039;DHT22;9652;49.014;12.052;2023-07-31T04:18:34;17.10;70.20
19039;DHT22;9652;49.014;12.052;2023-07-31T04:21:01;17.10;70.10
19039;DHT22;9652;49.014;12.052;2023-07-31T04:23:29;17.10;70.20
19039;DHT22;9652;49.014;12.052;2023-07-31T04:25:56;17.10;70.20
19039;DHT22;9652;49.014;12.052;2023-07-31T04:28:23;17.10;70.20
19039;DHT22;9652;49.014;12.052;2023-07-31T04:30:51;17.10;70.40
19039;DHT22;9652;49.014;12.052;2023-07-31T04:33:26;17.10;70.40
19039;DHT22;9652;49.014;12.052;2023-07-31T04:35:54;17.10;70.70
19039;DHT22;9652;49.014;12.052;2023-07-31T04:38:21;17.10;70.60
19039;DHT22;9652;49.014;12.052;2023-07-31T04:40:49;17.20;70.90
19039;DHT22;9652;49.014;12.052;2023-07-31T04:43:16;17.20;70.90
19039;DHT22;9652;49.014;12.052;2023-07-31T04:45:45;17.30;71.10
19039;DHT22;9652;49.014;12.052;2023-07-31T04:48:14;17.30;71.30
19039;DHT22;9652;49.014;12.052;2023-07-31T04:50:42;17.30;71.30
19039;DHT22;9652;49.014;12.052;2023-07-31T04:53:09;17.40;71.30
19039;DHT22;9652;49.014;12.052;2023-07-31T04:55:36;17.50;71.60
19039;DHT22;9652;49.014;12.052;2023-07-31T04:58:04;17.50;71.10
19039;DHT22;9652;49.014;12.052;2023-07-31T05:00:32;17.60;71.10
19039;DHT22;9652;49.014;12.052;2023-07-31T05:02:59;17.70;71.90
19039;DHT22;9652;49.014;12.052;2023-07-31T05:05:26;17.70;71.10
19039;DHT22;9652;49.014;12.052;2023-07-31T05:07:54;17.80;71.20
19039;DHT22;9652;49.014;12.052;2023-07-31T05:10:21;17.90;71.10
19039;DHT22;9652;49.014;12.052;2023-07-31T05:12:48;18.00;71.10
19039;DHT22;9652;49.014;12.052;2023-07-31T05:15:15;18.00;71.00
19039;DHT22;9652;49.014;12.052;2023-07-31T05:17:42;18.10;71.90
19039;DHT22;9652;49.014;12.052;2023-07-31T05:20:10;18.30;71.20
19039;DHT22;9652;49.014;12.052;2023-07-31T05:22:38;18.30;71.10
19039;DHT22;9652;49.014;12.052;2023-07-31T05:25:08;18.40;71.00
19039;DHT22;9652;49.014;12.052;2023-07-31T05:27:35;18.50;71.00
19039;DHT22;9652;49.014;12.052;2023-07-31T05:30:03;18.60;70.90
19039;DHT22;9652;49.014;12.052;2023-07-31T05:32:32;18.70;70.60
19039;DHT22;9652;49.014;12.052;2023-07-31T05:34:59;18.80;70.40
19039;DHT22;9652;49.014;12.052;2023-07-31T05:37:26;18.90;70.20
19039;DHT22;9652;49.014;12.052;2023-07-31T05:39:53;18.90;70.00
19039;DHT22;9652;49.014;12.052;2023-07-31T05:42:21;19.00;70.00
19039;DHT22;9652;49.014;12.052;2023-07-31T05:44:49;19.10;69.90
19039;DHT22;9652;49.014;12.052;2023-07-31T05:47:16;19.20;69.90
19039;DHT22;9652;49.014;12.052;2023-07-31T05:49:43;19.30;70.20
19039;DHT22;9652;49.014;12.052;2023-07-31T05:52:11;19.40;70.50
19039;DHT22;9652;49.014;12.052;2023-07-31T05:54:38;19.50;70.40
19039;DHT22;9652;49.014;12.052;2023-07-31T05:57:05;19.70;70.30
19039;DHT22;9652;49.014;12.052;2023-07-31T05:59:34;19.90;70.10
19039;DHT22;9652;49.014;12.052;2023-07-31T06:02:01;20.00;69.60
19039;DHT22;9652;49.014;12.052;2023-07-31T06:04:28;20.10;69.10
19039;DHT22;9652;49.014;12.052;2023-07-31T06:06:56;20.20;68.60
19039;DHT22;9652;49.014;12.052;2023-07-31T06:09:23;20.30;68.10
19039;DHT22;9652;49.014;12.052;2023-07-31T06:11:51;20.30;67.80
19039;DHT22;9652;49.014;12.052;2023-07-31T06:14:18;20.40;67.70
19039;DHT22;9652;49.014;12.052;2023-07-31T06:16:47;20.50;67.60
19039;DHT22;9652;49.014;12.052;2023-07-31T06:19:14;20.50;67.40
19039;DHT22;9652;49.014;12.052;2023-07-31T06:21:41;20.50;67.20
19039;DHT22;9652;49.014;12.052;2023-07-31T06:24:09;20.60;67.30
19039;DHT22;9652;49.014;12.052;2023-07-31T06:26:37;20.60;67.20
19039;DHT22;9652;49.014;12.052;2023-07-31T06:29:05;20.70;67.20
19039;DHT22;9652;49.014;12.052;2023-07-31T06:31:32;20.70;67.00
19039;DHT22;9652;49.014;12.052;2023-07-31T06:34:00;20.90;66.90
19039;DHT22;9652;49.014;12.052;2023-07-31T06:36:28;21.00;66.70
19039;DHT22;9652;49.014;12.052;2023-07-31T06:38:55;21.00;66.60
19039;DHT22;9652;49.014;12.052;2023-07-31T06:41:22;21.00;66.60
19039;DHT22;9652;49.014;12.052;2023-07-31T06:43:49;21.10;66.60
19039;DHT22;9652;49.014;12.052;2023-07-31T06:46:16;21.20;66.70
19039;DHT22;9652;49.014;12.052;2023-07-31T06:48:43;21.30;66.60
19039;DHT22;9652;49.014;12.052;2023-07-31T06:51:11;21.40;66.40
19039;DHT22;9652;49.014;12.052;2023-07-31T06:53:38;21.50;66.20
19039;DHT22;9652;49.014;12.052;2023-07-31T06:56:07;21.60;66.20
19039;DHT22;9652;49.014;12.052;2023-07-31T06:58:34;21.70;66.10
19039;DHT22;9652;49.014;12.052;2023-07-31T07:01:01;22.00;66.20
19039;DHT22;9652;49.014;12.052;2023-07-31T07:03:28;22.00;65.80
19039;DHT22;9652;49.014;12.052;2023-07-31T07:05:55;22.10;65.30
19039;DHT22;9652;49.014;12.052;2023-07-31T07:08:24;22.20;65.00
19039;DHT22;9652;49.014;12.052;2023-07-31T07:10:51;22.30;64.70
19039;DHT22;9652;49.014;12.052;2023-07-31T07:13:18;22.40;64.70
19039;DHT22;9652;49.014;12.052;2023-07-31T07:15:48;22.50;64.40
19039;DHT22;9652;49.014;12.052;2023-07-31T07:18:15;22.60;64.10
19039;DHT22;9652;49.014;12.052;2023-07-31T07:20:46;22.80;64.30
19039;DHT22;9652;49.014;12.052;2023-07-31T07:23:14;22.90;63.50
19039;DHT22;9652;49.014;12.052;2023-07-31T07:25:43;23.00;63.50
19039;DHT22;9652;49.014;12.052;2023-07-31T07:28:10;23.10;63.20
19039;DHT22;9652;49.014;12.052;2023-07-31T07:30:38;23.20;63.30
19039;DHT22;9652;49.014;12.052;2023-07-31T07:33:05;23.20;62.90
19039;DHT22;9652;49.014;12.052;2023-07-31T07:35:33;23.40;62.60
19039;DHT22;9652;49.014;12.052;2023-07-31T07:38:02;23.50;62.40
19039;DHT22;9652;49.014;12.052;2023-07-31T07:40:30;23.50;61.70
19039;DHT22;9652;49.014;12.052;2023-07-31T07:42:58;23.60;61.60
19039;DHT22;9652;49.014;12.052;2023-07-31T07:45:26;23.70;61.10
19039;DHT22;9652;49.014;12.052;2023-07-31T07:47:53;23.70;60.90
19039;DHT22;9652;49.014;12.052;2023-07-31T07:50:20;23.80;60.60
19039;DHT22;9652;49.014;12.052;2023-07-31T07:52:47;23.80;60.40
19039;DHT22;9652;49.014;12.052;2023-07-31T07:55:14;23.80;60.10
19039;DHT22;9652;49.014;12.052;2023-07-31T07:57:41;23.90;60.00
19039;DHT22;9652;49.014;12.052;2023-07-31T08:00:12;23.80;59.80
19039;DHT22;9652;49.014;12.052;2023-07-31T08:02:40;23.90;59.60
19039;DHT22;9652;49.014;12.052;2023-07-31T08:05:07;23.90;59.90
19039;DHT22;9652;49.014;12.052;2023-07-31T08:07:35;24.00;59.80
19039;DHT22;9652;49.014;12.052;2023-07-31T08:10:02;24.20;60.40
19039;DHT22;9652;49.014;12.052;2023-07-31T08:12:30;24.20;60.80
19039;DHT22;9652;49.014;12.052;2023-07-31T08:14:57;24.30;59.80
19039;DHT22;9652;49.014;12.052;2023-07-31T08:17:27;24.50;59.60
19039;DHT22;9652;49.014;12.052;2023-07-31T08:19:54;24.50;59.40
19039;DHT22;9652;49.014;12.052;2023-07-31T08:22:23;24.70;59.20
19039;DHT22;9652;49.014;12.052;2023-07-31T08:24:51;24.80;59.10
19039;DHT22;9652;49.014;12.052;2023-07-31T08:27:18;24.90;58.70
19039;DHT22;9652;49.014;12.052;2023-07-31T08:29:45;25.00;58.50
19039;DHT22;9652;49.014;12.052;2023-07-31T08:32:12;25.00;58.30
19039;DHT22;9652;49.014;12.052;2023-07-31T08:34:40;25.10;58.70
19039;DHT22;9652;49.014;12.052;2023-07-31T08:37:08;25.10;57.70
19039;DHT22;9652;49.014;12.052;2023-07-31T08:39:36;25.20;57.80
19039;DHT22;9652;49.014;12.052;2023-07-31T08:42:07;25.30;58.00
19039;DHT22;9652;49.014;12.052;2023-07-31T08:44:36;25.10;57.60
19039;DHT22;9652;49.014;12.052;2023-07-31T08:47:05;25.50;58.00
19039;DHT22;9652;49.014;12.052;2023-07-31T08:49:33;25.50;58.10
19039;DHT22;9652;49.014;12.052;2023-07-31T08:52:03;25.60;57.60
19039;DHT22;9652;49.014;12.052;2023-07-31T08:54:30;25.70;57.30
19039;DHT22;9652;49.014;12.052;2023-07-31T08:56:59;25.80;57.00
19039;DHT22;9652;49.014;12.052;2023-07-31T08:59:29;25.90;56.60
19039;DHT22;9652;49.014;12.052;2023-07-31T09:02:03;26.00;56.20
19039;DHT22;9652;49.014;12.052;2023-07-31T09:04:33;26.00;55.70
19039;DHT22;9652;49.014;12.052;2023-07-31T09:07:03;26.00;55.80
19039;DHT22;9652;49.014;12.052;2023-07-31T09:09:31;26.00;55.80
19039;DHT22;9652;49.014;12.052;2023-07-31T09:11:59;26.00;55.60
19039;DHT22;9652;49.014;12.052;2023-07-31T09:14:26;26.00;55.60
19039;DHT22;9652;49.014;12.052;2023-07-31T09:16:54;26.10;55.70
19039;DHT22;9652;49.014;12.052;2023-07-31T09:19:29;26.20;55.30
19039;DHT22;9652;49.014;12.052;2023-07-31T09:22:04;26.30;54.70
19039;DHT22;9652;49.014;12.052;2023-07-31T09:24:34;26.40;55.00
19039;DHT22;9652;49.014;12.052;2023-07-31T09:27:01;26.40;54.90
19039;DHT22;9652;49.014;12.052;2023-07-31T09:29:29;26.60;54.60
19039;DHT22;9652;49.014;12.052;2023-07-31T09:31:56;26.70;54.60
19039;DHT22;9652;49.014;12.052;2023-07-31T09:34:29;26.70;54.40
19039;DHT22;9652;49.014;12.052;2023-07-31T09:37:05;26.80;53.80
19039;DHT22;9652;49.014;12.052;2023-07-31T09:39:32;26.80;54.00
19039;DHT22;9652;49.014;12.052;2023-07-31T09:41:59;26.80;53.70
19039;DHT22;9652;49.014;12.052;2023-07-31T09:44:38;26.80;53.40
19039;DHT22;9652;49.014;12.052;2023-07-31T09:47:06;26.90;52.60
19039;DHT22;9652;49.014;12.052;2023-07-31T09:49:33;26.90;53.40
19039;DHT22;9652;49.014;12.052;2023-07-31T09:52:00;26.90;53.10
19039;DHT22;9652;49.014;12.052;2023-07-31T09:54:29;26.90;53.10
19039;DHT22;9652;49.014;12.052;2023-07-31T09:56:57;26.90;52.60
19039;DHT22;9652;49.014;12.052;2023-07-31T09:59:26;26.90;52.70
19039;DHT22;9652;49.014;12.052;2023-07-31T10:01:54;26.90;52.60
19039;DHT22;9652;49.014;12.052;2023-07-31T10:04:27;27.00;52.40
19039;DHT22;9652;49.014;12.052;2023-07-31T10:06:55;27.00;51.80
19039;DHT22;9652;49.014;12.052;2023-07-31T10:09:26;26.90;52.00
19039;DHT22;9652;49.014;12.052;2023-07-31T10:12:00;26.90;51.80
19039;DHT22;9652;49.014;12.052;2023-07-31T10:14:32;26.90;51.60
19039;DHT22;9652;49.014;12.052;2023-07-31T10:17:00;26.90;51.50
19039;DHT22;9652;49.014;12.052;2023-07-31T10:19:30;26.80;51.50
19039;DHT22;9652;49.014;12.052;2023-07-31T10:22:00;26.80;51.30
19039;DHT22;9652;49.014;12.052;2023-07-31T10:24:31;26.80;51.20
19039;DHT22;9652;49.014;12.052;2023-07-31T10:27:01;26.80;51.30
19039;DHT22;9652;49.014;12.052;2023-07-31T10:29:29;26.70;51.00
19039;DHT22;9652;49.014;12.052;2023-07-31T10:31:57;26.80;51.50
19039;DHT22;9652;49.014;12.052;2023-07-31T10:34:25;26.80;51.10
19039;DHT22;9652;49.014;12.052;2023-07-31T10:40:00;26.90;50.10
19039;DHT22;9652;49.014;12.052;2023-07-31T10:42:30;27.00;51.50
19039;DHT22;9652;49.014;12.052;2023-07-31T10:45:02;27.10;51.50
19039;DHT22;9652;49.014;12.052;2023-07-31T10:47:30;27.30;50.70
19039;DHT22;9652;49.014;12.052;2023-07-31T10:50:17;27.50;50.80
19039;DHT22;9652;49.014;12.052;2023-07-31T10:52:48;27.60;49.10
19039;DHT22;9652;49.014;12.052;2023-07-31T10:55:31;27.70;50.30
19039;DHT22;9652;49.014;12.052;2023-07-31T10:58:06;27.90;48.80
19039;DHT22;9652;49.014;12.052;2023-07-31T11:00:36;27.90;48.80
19039;DHT22;9652;49.014;12.052;2023-07-31T11:03:05;28.00;49.30
19039;DHT22;9652;49.014;12.052;2023-07-31T11:05:46;28.20;49.50
19039;DHT22;9652;49.014;12.052;2023-07-31T11:08:16;28.30;48.30
19039;DHT22;9652;49.014;12.052;2023-07-31T11:10:47;28.30;48.60
19039;DHT22;9652;49.014;12.052;2023-07-31T11:13:15;28.50;48.50
19039;DHT22;9652;49.014;12.052;2023-07-31T11:15:42;28.50;48.60
19039;DHT22;9652;49.014;12.052;2023-07-31T11:18:09;28.70;47.60
19039;DHT22;9652;49.014;12.052;2023-07-31T11:20:38;28.60;47.80
19039;DHT22;9652;49.014;12.052;2023-07-31T11:23:07;28.70;47.80
19039;DHT22;9652;49.014;12.052;2023-07-31T11:25:37;28.70;47.30
19039;DHT22;9652;49.014;12.052;2023-07-31T11:28:09;28.80;47.40
19039;DHT22;9652;49.014;12.052;2023-07-31T11:30:37;28.90;47.00
19039;DHT22;9652;49.014;12.052;2023-07-31T11:33:06;28.80;46.70
19039;DHT22;9652;49.014;12.052;2023-07-31T11:35:36;28.80;46.50
19039;DHT22;9652;49.014;12.052;2023-07-31T11:38:07;28.80;46.40
19039;DHT22;9652;49.014;12.052;2023-07-31T11:40:41;28.70;46.50
19039;DHT22;9652;49.014;12.052;2023-07-31T11:43:10;28.70;45.60
19039;DHT22;9652;49.014;12.052;2023-07-31T11:45:42;28.70;46.00
19039;DHT22;9652;49.014;12.052;2023-07-31T11:48:19;28.80;46.30
19039;DHT22;9652;49.014;12.052;2023-07-31T11:50:48;28.80;45.30
19039;DHT22;9652;49.014;12.052;2023-07-31T11:53:18;28.80;45.60
19039;DHT22;9652;49.014;12.052;2023-07-31T11:55:49;28.80;45.30
19039;DHT22;9652;49.014;12.052;2023-07-31T11:58:18;28.80;45.30
19039;DHT22;9652;49.014;12.052;2023-07-31T12:00:46;28.70;45.10
19039;DHT22;9652;49.014;12.052;2023-07-31T12:03:15;28.70;45.20
19039;DHT22;9652;49.014;12.052;2023-07-31T12:05:42;28.70;44.90
19039;DHT22;9652;49.014;12.052;2023-07-31T12:08:10;28.60;45.20
19039;DHT22;9652;49.014;12.052;2023-07-31T12:10:38;28.60;45.40
19039;DHT22;9652;49.014;12.052;2023-07-31T12:13:08;28.50;45.20
19039;DHT22;9652;49.014;12.052;2023-07-31T12:15:41;28.50;45.20
19039;DHT22;9652;49.014;12.052;2023-07-31T12:18:10;28.50;44.90
19039;DHT22;9652;49.014;12.052;2023-07-31T12:20:42;28.50;45.00
19039;DHT22;9652;49.014;12.052;2023-07-31T12:23:14;28.50;45.00
19039;DHT22;9652;49.014;12.052;2023-07-31T12:25:43;28.50;45.10
19039;DHT22;9652;49.014;12.052;2023-07-31T12:28:10;28.50;45.30
19039;DHT22;9652;49.014;12.052;2023-07-31T12:30:41;28.60;45.30
19039;DHT22;9652;49.014;12.052;2023-07-31T12:33:13;28.60;45.20
19039;DHT22;9652;49.014;12.052;2023-07-31T12:35:43;28.70;44.80
19039;DHT22;9652;49.014;12.052;2023-07-31T12:38:11;28.80;45.10
19039;DHT22;9652;49.014;12.052;2023-07-31T12:40:39;28.90;45.40
19039;DHT22;9652;49.014;12.052;2023-07-31T12:43:07;29.10;45.20
19039;DHT22;9652;49.014;12.052;2023-07-31T12:45:34;29.10;45.00
19039;DHT22;9652;49.014;12.052;2023-07-31T12:48:03;29.10;45.00
19039;DHT22;9652;49.014;12.052;2023-07-31T12:50:31;29.20;44.80
19039;DHT22;9652;49.014;12.052;2023-07-31T12:52:58;29.30;44.80
19039;DHT22;9652;49.014;12.052;2023-07-31T12:55:25;29.40;44.60
19039;DHT22;9652;49.014;12.052;2023-07-31T12:57:52;29.50;44.80
19039;DHT22;9652;49.014;12.052;2023-07-31T13:00:19;29.60;44.80
19039;DHT22;9652;49.014;12.052;2023-07-31T13:02:47;29.80;44.40
19039;DHT22;9652;49.014;12.052;2023-07-31T13:05:16;29.80;43.80
19039;DHT22;9652;49.014;12.052;2023-07-31T13:07:43;29.90;43.50
19039;DHT22;9652;49.014;12.052;2023-07-31T13:10:10;30.00;43.70
19039;DHT22;9652;49.014;12.052;2023-07-31T13:12:37;30.00;43.50
19039;DHT22;9652;49.014;12.052;2023-07-31T13:15:06;30.20;43.70
19039;DHT22;9652;49.014;12.052;2023-07-31T13:17:34;30.20;43.50
19039;DHT22;9652;49.014;12.052;2023-07-31T13:20:02;30.30;43.50
19039;DHT22;9652;49.014;12.052;2023-07-31T13:22:31;30.40;43.60
19039;DHT22;9652;49.014;12.052;2023-07-31T13:24:59;30.70;43.10
19039;DHT22;9652;49.014;12.052;2023-07-31T13:27:26;30.80;43.30
19039;DHT22;9652;49.014;12.052;2023-07-31T13:29:53;31.00;44.00
19039;DHT22;9652;49.014;12.052;2023-07-31T13:32:21;31.20;43.40
19039;DHT22;9652;49.014;12.052;2023-07-31T13:34:48;31.40;43.00
19039;DHT22;9652;49.014;12.052;2023-07-31T13:37:15;31.70;43.30
19039;DHT22;9652;49.014;12.052;2023-07-31T13:39:44;32.00;43.30
19039;DHT22;9652;49.014;12.052;2023-07-31T13:42:11;32.40;42.90
19039;DHT22;9652;49.014;12.052;2023-07-31T13:44:38;32.70;42.70
19039;DHT22;9652;49.014;12.052;2023-07-31T13:47:05;33.10;42.00
19039;DHT22;9652;49.014;12.052;2023-07-31T13:49:33;33.40;40.60
19039;DHT22;9652;49.014;12.052;2023-07-31T13:52:01;33.50;40.30
19039;DHT22;9652;49.014;12.052;2023-07-31T13:54:29;33.60;39.90
19039;DHT22;9652;49.014;12.052;2023-07-31T13:56:57;33.60;39.50
19039;DHT22;9652;49.014;12.052;2023-07-31T13:59:24;33.60;39.50
19039;DHT22;9652;49.014;12.052;2023-07-31T14:01:52;33.60;39.80
19039;DHT22;9652;49.014;12.052;2023-07-31T14:04:19;33.60;39.60
19039;DHT22;9652;49.014;12.052;2023-07-31T14:06:46;33.70;39.50
19039;DHT22;9652;49.014;12.052;2023-07-31T14:09:15;33.70;40.20
19039;DHT22;9652;49.014;12.052;2023-07-31T14:11:43;33.80;39.70
19039;DHT22;9652;49.014;12.052;2023-07-31T14:14:11;33.80;39.30
19039;DHT22;9652;49.014;12.052;2023-07-31T14:16:38;33.90;38.90
19039;DHT22;9652;49.014;12.052;2023-07-31T14:19:05;34.00;38.90
19039;DHT22;9652;49.014;12.052;2023-07-31T14:21:33;34.10;38.80
19039;DHT22;9652;49.014;12.052;2023-07-31T14:24:00;34.10;38.30
19039;DHT22;9652;49.014;12.052;2023-07-31T14:26:27;34.10;37.90
19039;DHT22;9652;49.014;12.052;2023-07-31T14:28:54;34.00;38.00
19039;DHT22;9652;49.014;12.052;2023-07-31T14:31:23;34.00;38.20
19039;DHT22;9652;49.014;12.052;2023-07-31T14:33:50;34.10;38.60
19039;DHT22;9652;49.014;12.052;2023-07-31T14:36:17;34.20;38.80
19039;DHT22;9652;49.014;12.052;2023-07-31T14:38:44;34.40;38.60
19039;DHT22;9652;49.014;12.052;2023-07-31T14:41:11;34.70;38.30
19039;DHT22;9652;49.014;12.052;2023-07-31T14:43:38;34.80;37.90
19039;DHT22;9652;49.014;12.052;2023-07-31T14:46:05;35.00;38.20
19039;DHT22;9652;49.014;12.052;2023-07-31T14:48:34;35.10;38.10
19039;DHT22;9652;49.014;12.052;2023-07-31T14:51:01;35.30;37.50
19039;DHT22;9652;49.014;12.052;2023-07-31T14:53:28;35.50;36.50
19039;DHT22;9652;49.014;12.052;2023-07-31T14:55:55;35.70;37.20
19039;DHT22;9652;49.014;12.052;2023-07-31T14:58:22;35.90;37.40
19039;DHT22;9652;49.014;12.052;2023-07-31T15:00:49;36.10;36.80
19039;DHT22;9652;49.014;12.052;2023-07-31T15:03:16;36.30;36.30
19039;DHT22;9652;49.014;12.052;2023-07-31T15:05:45;36.50;36.20
19039;DHT22;9652;49.014;12.052;2023-07-31T15:08:12;36.60;35.80
19039;DHT22;9652;49.014;12.052;2023-07-31T15:10:39;36.70;35.00
19039;DHT22;9652;49.014;12.052;2023-07-31T15:13:06;36.80;34.70
19039;DHT22;9652;49.014;12.052;2023-07-31T15:15:33;36.90;34.60
19039;DHT22;9652;49.014;12.052;2023-07-31T15:18:00;36.80;34.40
19039;DHT22;9652;49.014;12.052;2023-07-31T15:20:28;36.80;34.10
19039;DHT22;9652;49.014;12.052;2023-07-31T15:22:57;36.70;34.10
19039;DHT22;9652;49.014;12.052;2023-07-31T15:25:24;36.50;33.70
19039;DHT22;9652;49.014;12.052;2023-07-31T15:27:51;36.30;34.10
19039;DHT22;9652;49.014;12.052;2023-07-31T15:30:18;35.90;33.30
19039;DHT22;9652;49.014;12.052;2023-07-31T15:32:45;35.60;33.40
19039;DHT22;9652;49.014;12.052;2023-07-31T15:35:14;35.20;33.50
19039;DHT22;9652;49.014;12.052;2023-07-31T15:37:41;34.80;33.80
19039;DHT22;9652;49.014;12.052;2023-07-31T15:40:10;34.40;34.00